Torredembarra, Spain
Current Conditions -  °F | °C
As of 1:30 AM on Sunday 26 Oct 2014 (Local Time) from LERS Reporting Station
Clear Clear  
Wind Chill: 57°   Ceiling: Unl
Heat Index: 57°   Visibility: 6mi
Dew Point: 55°   Wind: 1mph
Humidity: 94%   Direction: NA
Pressure: 30.15"   Gusts: NA
Location:  41.15°N, 1.4°E
Report Text: LERS 252330Z AUTO VRB01KT CAVOK 14/13 Q1021
Loading
Personal Weather Stations






























Interactive Weather Map
Tropical Storm Tracking
New forecast layout! Learn more

10-Day Weather Forecast

Advertisements
Track Severe Weather on mobile